sensor_id;sensor_type;location;lat;lon;timestamp;pressure;altitude;pressure_sealevel;temperature;humidity
5883;BME280;2967;51.488;6.618;2024-02-26T00:00:04;99568.38;;;9.42;100.00
5883;BME280;2967;51.488;6.618;2024-02-26T00:05:12;99590.69;;;9.38;100.00
5883;BME280;2967;51.488;6.618;2024-02-26T00:10:14;99589.13;;;9.46;100.00
5883;BME280;2967;51.488;6.618;2024-02-26T00:15:17;99588.44;;;9.33;100.00
5883;BME280;2967;51.488;6.618;2024-02-26T00:20:21;99586.97;;;9.29;100.00
5883;BME280;2967;51.488;6.618;2024-02-26T00:25:24;99591.63;;;9.26;100.00
5883;BME280;2967;51.488;6.618;2024-02-26T00:30:27;99594.28;;;9.26;100.00
5883;BME280;2967;51.488;6.618;2024-02-26T00:35:31;99594.16;;;9.27;100.00
5883;BME280;2967;51.488;6.618;2024-02-26T00:40:33;99584.56;;;9.26;100.00
5883;BME280;2967;51.488;6.618;2024-02-26T00:45:36;99576.16;;;9.10;100.00
5883;BME280;2967;51.488;6.618;2024-02-26T00:50:41;99566.56;;;9.31;100.00
5883;BME280;2967;51.488;6.618;2024-02-26T00:55:44;99576.91;;;9.34;100.00
5883;BME280;2967;51.488;6.618;2024-02-26T01:00:47;99564.06;;;9.41;100.00
5883;BME280;2967;51.488;6.618;2024-02-26T01:05:51;99563.81;;;9.33;100.00
5883;BME280;2967;51.488;6.618;2024-02-26T01:10:59;99610.72;;;9.29;100.00
5883;BME280;2967;51.488;6.618;2024-02-26T01:16:03;99601.72;;;9.54;100.00
5883;BME280;2967;51.488;6.618;2024-02-26T01:21:07;99596.69;;;9.51;100.00
5883;BME280;2967;51.488;6.618;2024-02-26T01:26:11;99593.34;;;9.49;100.00
5883;BME280;2967;51.488;6.618;2024-02-26T01:31:13;99605.56;;;9.50;100.00
5883;BME280;2967;51.488;6.618;2024-02-26T01:36:18;99595.72;;;9.30;100.00
5883;BME280;2967;51.488;6.618;2024-02-26T01:41:20;99608.81;;;9.42;100.00
5883;BME280;2967;51.488;6.618;2024-02-26T01:46:23;99604.34;;;9.43;100.00
5883;BME280;2967;51.488;6.618;2024-02-26T01:51:27;99599.44;;;9.49;100.00
5883;BME280;2967;51.488;6.618;2024-02-26T01:56:31;99602.22;;;9.48;100.00
5883;BME280;2967;51.488;6.618;2024-02-26T02:01:35;99603.16;;;9.47;100.00
5883;BME280;2967;51.488;6.618;2024-02-26T02:06:41;99608.22;;;9.39;100.00
5883;BME280;2967;51.488;6.618;2024-02-26T02:11:46;99592.59;;;9.25;100.00
5883;BME280;2967;51.488;6.618;2024-02-26T02:16:50;99602.94;;;9.39;100.00
5883;BME280;2967;51.488;6.618;2024-02-26T02:21:54;99607.09;;;9.41;100.00
5883;BME280;2967;51.488;6.618;2024-02-26T02:26:57;99593.81;;;9.32;100.00
5883;BME280;2967;51.488;6.618;2024-02-26T02:32:01;99608.56;;;9.34;100.00
5883;BME280;2967;51.488;6.618;2024-02-26T02:37:06;99572.47;;;9.13;100.00
5883;BME280;2967;51.488;6.618;2024-02-26T02:42:08;99605.44;;;9.29;100.00
5883;BME280;2967;51.488;6.618;2024-02-26T02:47:12;99606.53;;;9.49;100.00
5883;BME280;2967;51.488;6.618;2024-02-26T02:52:16;99603.66;;;9.41;100.00
5883;BME280;2967;51.488;6.618;2024-02-26T02:57:19;99618.97;;;9.36;100.00
5883;BME280;2967;51.488;6.618;2024-02-26T03:02:22;99579.91;;;9.19;100.00
5883;BME280;2967;51.488;6.618;2024-02-26T03:07:27;99607.72;;;9.34;100.00
5883;BME280;2967;51.488;6.618;2024-02-26T03:12:30;99573.66;;;8.87;100.00
5883;BME280;2967;51.488;6.618;2024-02-26T03:17:33;99628.00;;;9.22;100.00
5883;BME280;2967;51.488;6.618;2024-02-26T03:22:38;99609.13;;;8.94;100.00
5883;BME280;2967;51.488;6.618;2024-02-26T03:27:41;99611.06;;;9.03;100.00
5883;BME280;2967;51.488;6.618;2024-02-26T03:32:43;99597.81;;;8.70;100.00
5883;BME280;2967;51.488;6.618;2024-02-26T03:37:49;99595.34;;;8.90;100.00
5883;BME280;2967;51.488;6.618;2024-02-26T03:42:54;99624.00;;;9.06;100.00
5883;BME280;2967;51.488;6.618;2024-02-26T03:47:58;99612.72;;;9.04;100.00
5883;BME280;2967;51.488;6.618;2024-02-26T03:53:04;99618.63;;;9.07;100.00
5883;BME280;2967;51.488;6.618;2024-02-26T03:58:06;99621.34;;;8.95;100.00
5883;BME280;2967;51.488;6.618;2024-02-26T04:03:09;99619.69;;;9.05;100.00
5883;BME280;2967;51.488;6.618;2024-02-26T04:08:13;99626.41;;;8.98;100.00
5883;BME280;2967;51.488;6.618;2024-02-26T04:13:17;99623.00;;;8.85;100.00
5883;BME280;2967;51.488;6.618;2024-02-26T04:18:20;99568.81;;;8.59;100.00
5883;BME280;2967;51.488;6.618;2024-02-26T04:23:24;99621.34;;;8.84;100.00
5883;BME280;2967;51.488;6.618;2024-02-26T04:28:27;99617.50;;;8.77;100.00
5883;BME280;2967;51.488;6.618;2024-02-26T04:33:33;99624.44;;;8.78;100.00
5883;BME280;2967;51.488;6.618;2024-02-26T04:38:38;99603.91;;;8.70;100.00
5883;BME280;2967;51.488;6.618;2024-02-26T04:43:43;99622.03;;;8.75;100.00
5883;BME280;2967;51.488;6.618;2024-02-26T04:48:46;99633.56;;;8.85;100.00
5883;BME280;2967;51.488;6.618;2024-02-26T04:53:51;99616.63;;;8.65;100.00
5883;BME280;2967;51.488;6.618;2024-02-26T04:58:55;99618.19;;;8.33;100.00
5883;BME280;2967;51.488;6.618;2024-02-26T05:03:57;99657.56;;;8.58;100.00
5883;BME280;2967;51.488;6.618;2024-02-26T05:09:02;99641.50;;;8.61;100.00
5883;BME280;2967;51.488;6.618;2024-02-26T05:14:05;99606.13;;;8.42;100.00
5883;BME280;2967;51.488;6.618;2024-02-26T05:19:08;99647.44;;;8.76;100.00
5883;BME280;2967;51.488;6.618;2024-02-26T05:24:12;99655.56;;;8.73;100.00
5883;BME280;2967;51.488;6.618;2024-02-26T05:29:18;99623.59;;;8.43;100.00
5883;BME280;2967;51.488;6.618;2024-02-26T05:34:20;99675.94;;;8.71;100.00
5883;BME280;2967;51.488;6.618;2024-02-26T05:39:25;99666.81;;;8.64;100.00
5883;BME280;2967;51.488;6.618;2024-02-26T05:44:28;99663.09;;;8.66;100.00
5883;BME280;2967;51.488;6.618;2024-02-26T05:49:31;99679.31;;;8.73;100.00
5883;BME280;2967;51.488;6.618;2024-02-26T05:54:36;99630.59;;;8.31;100.00
5883;BME280;2967;51.488;6.618;2024-02-26T05:59:39;99684.28;;;8.65;100.00
5883;BME280;2967;51.488;6.618;2024-02-26T06:04:43;99631.19;;;8.24;100.00
5883;BME280;2967;51.488;6.618;2024-02-26T06:09:52;99634.53;;;8.26;100.00
5883;BME280;2967;51.488;6.618;2024-02-26T06:14:57;99707.53;;;8.60;100.00
5883;BME280;2967;51.488;6.618;2024-02-26T06:20:03;99726.03;;;8.71;100.00
5883;BME280;2967;51.488;6.618;2024-02-26T06:25:09;99717.78;;;8.52;100.00
5883;BME280;2967;51.488;6.618;2024-02-26T06:30:12;99704.13;;;8.47;100.00
5883;BME280;2967;51.488;6.618;2024-02-26T06:35:15;99716.88;;;8.40;100.00
5883;BME280;2967;51.488;6.618;2024-02-26T06:40:19;99668.53;;;8.05;100.00
5883;BME280;2967;51.488;6.618;2024-02-26T06:45:22;99728.03;;;8.44;100.00
5883;BME280;2967;51.488;6.618;2024-02-26T06:50:25;99720.59;;;8.38;100.00
5883;BME280;2967;51.488;6.618;2024-02-26T06:55:31;99733.78;;;8.38;100.00
5883;BME280;2967;51.488;6.618;2024-02-26T07:00:37;99735.00;;;8.45;100.00
5883;BME280;2967;51.488;6.618;2024-02-26T07:05:40;99715.34;;;8.38;100.00
5883;BME280;2967;51.488;6.618;2024-02-26T07:10:44;99718.41;;;8.32;100.00
5883;BME280;2967;51.488;6.618;2024-02-26T07:16:12;99755.25;;;8.44;100.00
5883;BME280;2967;51.488;6.618;2024-02-26T07:21:15;99765.06;;;8.66;100.00
5883;BME280;2967;51.488;6.618;2024-02-26T07:26:19;99763.31;;;8.54;100.00
5883;BME280;2967;51.488;6.618;2024-02-26T07:31:23;99760.69;;;8.54;100.00
5883;BME280;2967;51.488;6.618;2024-02-26T07:36:28;99776.88;;;8.60;100.00
5883;BME280;2967;51.488;6.618;2024-02-26T07:41:32;99792.53;;;8.51;100.00
5883;BME280;2967;51.488;6.618;2024-02-26T07:46:35;99797.78;;;8.63;100.00
5883;BME280;2967;51.488;6.618;2024-02-26T07:51:37;99799.13;;;8.33;100.00
5883;BME280;2967;51.488;6.618;2024-02-26T07:56:42;99807.25;;;8.30;100.00
5883;BME280;2967;51.488;6.618;2024-02-26T08:01:49;99805.88;;;8.24;100.00
5883;BME280;2967;51.488;6.618;2024-02-26T08:06:57;99780.16;;;8.15;100.00
5883;BME280;2967;51.488;6.618;2024-02-26T08:12:02;99818.69;;;8.41;100.00
5883;BME280;2967;51.488;6.618;2024-02-26T08:17:05;99827.84;;;8.48;100.00
5883;BME280;2967;51.488;6.618;2024-02-26T08:22:08;99827.22;;;8.45;100.00
5883;BME280;2967;51.488;6.618;2024-02-26T08:27:19;99830.31;;;8.39;100.00
5883;BME280;2967;51.488;6.618;2024-02-26T08:32:25;99832.22;;;8.37;100.00
5883;BME280;2967;51.488;6.618;2024-02-26T08:37:29;99842.75;;;8.37;100.00
5883;BME280;2967;51.488;6.618;2024-02-26T08:42:33;99841.91;;;8.36;100.00
5883;BME280;2967;51.488;6.618;2024-02-26T08:47:35;99851.78;;;8.58;100.00
5883;BME280;2967;51.488;6.618;2024-02-26T08:52:38;99858.91;;;8.56;100.00
5883;BME280;2967;51.488;6.618;2024-02-26T08:57:43;99851.88;;;8.56;100.00
5883;BME280;2967;51.488;6.618;2024-02-26T09:02:45;99859.78;;;8.56;100.00
5883;BME280;2967;51.488;6.618;2024-02-26T09:07:48;99874.47;;;8.71;100.00
5883;BME280;2967;51.488;6.618;2024-02-26T09:12:54;99881.34;;;8.74;100.00
5883;BME280;2967;51.488;6.618;2024-02-26T09:17:58;99878.72;;;8.61;100.00
5883;BME280;2967;51.488;6.618;2024-02-26T09:23:01;99884.69;;;8.76;100.00
5883;BME280;2967;51.488;6.618;2024-02-26T09:28:05;99888.78;;;8.92;100.00
5883;BME280;2967;51.488;6.618;2024-02-26T09:33:08;99866.09;;;8.54;100.00
5883;BME280;2967;51.488;6.618;2024-02-26T09:38:11;99878.56;;;8.52;100.00
5883;BME280;2967;51.488;6.618;2024-02-26T09:43:17;99914.38;;;8.67;100.00
5883;BME280;2967;51.488;6.618;2024-02-26T09:48:23;99918.06;;;8.64;100.00
5883;BME280;2967;51.488;6.618;2024-02-26T09:53:28;99883.44;;;8.33;100.00
5883;BME280;2967;51.488;6.618;2024-02-26T09:58:35;99905.22;;;8.47;100.00
5883;BME280;2967;51.488;6.618;2024-02-26T10:03:41;99944.22;;;8.67;100.00
5883;BME280;2967;51.488;6.618;2024-02-26T10:08:47;99951.38;;;8.78;100.00
5883;BME280;2967;51.488;6.618;2024-02-26T10:13:51;99958.66;;;8.74;100.00
5883;BME280;2967;51.488;6.618;2024-02-26T10:18:54;99962.56;;;8.69;100.00
5883;BME280;2967;51.488;6.618;2024-02-26T10:24:00;99966.66;;;8.73;100.00
5883;BME280;2967;51.488;6.618;2024-02-26T10:29:05;99974.66;;;8.71;100.00
5883;BME280;2967;51.488;6.618;2024-02-26T10:34:08;99975.34;;;9.11;100.00
5883;BME280;2967;51.488;6.618;2024-02-26T10:39:12;99965.38;;;8.78;100.00
5883;BME280;2967;51.488;6.618;2024-02-26T10:44:16;99987.84;;;8.84;100.00
5883;BME280;2967;51.488;6.618;2024-02-26T10:49:20;99946.41;;;8.73;100.00
5883;BME280;2967;51.488;6.618;2024-02-26T10:54:26;99994.88;;;9.08;100.00
5883;BME280;2967;51.488;6.618;2024-02-26T10:59:33;99999.16;;;8.61;100.00
5883;BME280;2967;51.488;6.618;2024-02-26T11:04:37;100012.84;;;8.78;100.00
5883;BME280;2967;51.488;6.618;2024-02-26T11:09:41;100005.38;;;8.72;100.00
5883;BME280;2967;51.488;6.618;2024-02-26T11:14:49;100022.00;;;8.98;100.00
5883;BME280;2967;51.488;6.618;2024-02-26T11:19:57;100036.78;;;8.88;100.00
5883;BME280;2967;51.488;6.618;2024-02-26T11:25:01;100042.97;;;9.12;100.00
5883;BME280;2967;51.488;6.618;2024-02-26T11:30:08;100040.34;;;9.12;100.00
5883;BME280;2967;51.488;6.618;2024-02-26T11:35:12;100028.91;;;9.24;100.00
5883;BME280;2967;51.488;6.618;2024-02-26T11:40:17;100027.44;;;9.32;100.00
5883;BME280;2967;51.488;6.618;2024-02-26T11:45:53;100027.28;;;9.34;100.00
5883;BME280;2967;51.488;6.618;2024-02-26T11:50:58;100013.28;;;9.33;100.00
5883;BME280;2967;51.488;6.618;2024-02-26T11:56:20;100014.88;;;9.23;100.00
5883;BME280;2967;51.488;6.618;2024-02-26T12:01:44;100028.47;;;9.30;100.00
5883;BME280;2967;51.488;6.618;2024-02-26T12:06:51;100043.69;;;9.26;100.00
5883;BME280;2967;51.488;6.618;2024-02-26T12:11:55;100041.69;;;9.30;100.00
5883;BME280;2967;51.488;6.618;2024-02-26T12:17:00;100047.13;;;9.39;100.00
5883;BME280;2967;51.488;6.618;2024-02-26T12:22:07;100026.88;;;9.40;100.00
5883;BME280;2967;51.488;6.618;2024-02-26T12:27:10;100058.06;;;9.58;100.00
5883;BME280;2967;51.488;6.618;2024-02-26T12:32:16;100067.16;;;9.54;100.00
5883;BME280;2967;51.488;6.618;2024-02-26T12:37:19;100049.84;;;9.50;100.00
5883;BME280;2967;51.488;6.618;2024-02-26T12:42:24;100043.13;;;9.34;100.00
5883;BME280;2967;51.488;6.618;2024-02-26T12:47:29;100079.19;;;9.58;100.00
5883;BME280;2967;51.488;6.618;2024-02-26T12:52:32;100081.09;;;9.56;100.00
5883;BME280;2967;51.488;6.618;2024-02-26T12:57:36;100094.63;;;9.52;100.00
5883;BME280;2967;51.488;6.618;2024-02-26T13:02:41;100103.25;;;9.54;100.00
5883;BME280;2967;51.488;6.618;2024-02-26T13:07:46;100063.94;;;9.26;100.00
5883;BME280;2967;51.488;6.618;2024-02-26T13:12:49;100125.25;;;9.42;100.00
5883;BME280;2967;51.488;6.618;2024-02-26T13:17:54;100120.41;;;9.36;100.00
5883;BME280;2967;51.488;6.618;2024-02-26T13:23:01;100124.63;;;9.38;100.00
5883;BME280;2967;51.488;6.618;2024-02-26T13:28:09;100145.41;;;9.55;100.00
5883;BME280;2967;51.488;6.618;2024-02-26T13:33:18;100144.75;;;9.64;100.00
5883;BME280;2967;51.488;6.618;2024-02-26T13:38:24;100160.31;;;9.92;100.00
5883;BME280;2967;51.488;6.618;2024-02-26T13:43:28;100157.50;;;9.70;100.00
5883;BME280;2967;51.488;6.618;2024-02-26T13:48:33;100146.53;;;9.64;100.00
5883;BME280;2967;51.488;6.618;2024-02-26T13:53:37;100177.34;;;9.76;100.00
5883;BME280;2967;51.488;6.618;2024-02-26T13:58:39;100135.91;;;9.53;100.00
5883;BME280;2967;51.488;6.618;2024-02-26T14:03:44;100187.50;;;9.82;100.00
5883;BME280;2967;51.488;6.618;2024-02-26T14:08:46;100187.81;;;9.77;100.00
5883;BME280;2967;51.488;6.618;2024-02-26T14:13:49;100183.41;;;9.65;100.00
5883;BME280;2967;51.488;6.618;2024-02-26T14:18:53;100196.38;;;9.81;100.00
5883;BME280;2967;51.488;6.618;2024-02-26T14:23:56;100195.25;;;9.72;100.00
5883;BME280;2967;51.488;6.618;2024-02-26T14:29:00;100202.53;;;9.56;100.00
5883;BME280;2967;51.488;6.618;2024-02-26T14:34:05;100203.16;;;9.60;100.00
5883;BME280;2967;51.488;6.618;2024-02-26T14:39:08;100189.34;;;9.44;100.00
5883;BME280;2967;51.488;6.618;2024-02-26T14:44:15;100227.75;;;9.60;100.00
5883;BME280;2967;51.488;6.618;2024-02-26T14:49:19;100242.97;;;9.69;100.00
5883;BME280;2967;51.488;6.618;2024-02-26T14:54:27;100246.47;;;9.57;100.00
5883;BME280;2967;51.488;6.618;2024-02-26T14:59:37;100252.28;;;9.50;100.00
5883;BME280;2967;51.488;6.618;2024-02-26T15:04:43;100214.25;;;9.27;100.00
5883;BME280;2967;51.488;6.618;2024-02-26T15:09:47;100279.50;;;9.50;100.00
5883;BME280;2967;51.488;6.618;2024-02-26T15:14:51;100258.81;;;9.32;100.00
5883;BME280;2967;51.488;6.618;2024-02-26T15:19:59;100225.53;;;9.17;100.00
5883;BME280;2967;51.488;6.618;2024-02-26T15:25:03;100302.44;;;9.50;100.00
5883;BME280;2967;51.488;6.618;2024-02-26T15:30:08;100304.44;;;9.46;100.00
5883;BME280;2967;51.488;6.618;2024-02-26T15:35:13;100315.50;;;9.51;100.00
5883;BME280;2967;51.488;6.618;2024-02-26T15:40:15;100323.34;;;9.53;100.00
5883;BME280;2967;51.488;6.618;2024-02-26T15:45:20;100307.47;;;9.28;100.00
5883;BME280;2967;51.488;6.618;2024-02-26T15:50:24;100334.59;;;9.30;100.00
5883;BME280;2967;51.488;6.618;2024-02-26T15:55:28;100330.47;;;9.26;100.00
5883;BME280;2967;51.488;6.618;2024-02-26T16:00:31;100347.50;;;9.34;100.00
5883;BME280;2967;51.488;6.618;2024-02-26T16:05:36;100352.00;;;9.20;100.00
5883;BME280;2967;51.488;6.618;2024-02-26T16:10:40;100381.38;;;9.28;100.00
5883;BME280;2967;51.488;6.618;2024-02-26T16:15:47;100348.88;;;9.01;100.00
5883;BME280;2967;51.488;6.618;2024-02-26T16:20:59;100353.19;;;9.02;100.00
5883;BME280;2967;51.488;6.618;2024-02-26T16:26:05;100399.88;;;9.14;100.00
5883;BME280;2967;51.488;6.618;2024-02-26T16:31:08;100415.78;;;9.26;100.00
5883;BME280;2967;51.488;6.618;2024-02-26T16:36:12;100409.31;;;9.18;100.00
5883;BME280;2967;51.488;6.618;2024-02-26T16:41:15;100431.81;;;9.23;100.00
5883;BME280;2967;51.488;6.618;2024-02-26T16:46:18;100364.47;;;8.77;100.00
5883;BME280;2967;51.488;6.618;2024-02-26T16:51:23;100451.53;;;9.18;100.00
5883;BME280;2967;51.488;6.618;2024-02-26T16:56:26;100445.22;;;9.06;100.00
5883;BME280;2967;51.488;6.618;2024-02-26T17:01:28;100427.84;;;8.90;100.00
5883;BME280;2967;51.488;6.618;2024-02-26T17:06:34;100463.00;;;9.17;100.00
5883;BME280;2967;51.488;6.618;2024-02-26T17:11:38;100473.31;;;9.07;100.00
5883;BME280;2967;51.488;6.618;2024-02-26T17:16:41;100492.22;;;9.14;100.00
5883;BME280;2967;51.488;6.618;2024-02-26T17:21:46;100413.28;;;8.56;100.00
5883;BME280;2967;51.488;6.618;2024-02-26T17:26:51;100464.97;;;8.87;100.00
5883;BME280;2967;51.488;6.618;2024-02-26T17:31:57;100498.38;;;9.00;100.00
5883;BME280;2967;51.488;6.618;2024-02-26T17:37:01;100480.88;;;8.85;100.00
5883;BME280;2967;51.488;6.618;2024-02-26T17:42:05;100536.50;;;9.23;100.00
5883;BME280;2967;51.488;6.618;2024-02-26T17:47:10;100543.31;;;9.13;100.00
5883;BME280;2967;51.488;6.618;2024-02-26T17:52:15;100559.34;;;9.10;100.00
5883;BME280;2967;51.488;6.618;2024-02-26T17:57:18;100556.13;;;9.05;100.00
5883;BME280;2967;51.488;6.618;2024-02-26T18:02:22;100584.38;;;9.17;100.00
5883;BME280;2967;51.488;6.618;2024-02-26T18:07:26;100590.78;;;9.13;100.00
5883;BME280;2967;51.488;6.618;2024-02-26T18:12:29;100599.47;;;9.15;100.00
5883;BME280;2967;51.488;6.618;2024-02-26T18:17:32;100399.22;;;7.86;100.00
5883;BME280;2967;51.488;6.618;2024-02-26T18:22:39;100391.69;;;7.80;100.00
5883;BME280;2967;51.488;6.618;2024-02-26T18:27:43;100519.97;;;8.51;100.00
5883;BME280;2967;51.488;6.618;2024-02-26T18:32:46;100437.69;;;7.88;100.00
5883;BME280;2967;51.488;6.618;2024-02-26T18:37:54;100664.69;;;9.13;100.00
5883;BME280;2967;51.488;6.618;2024-02-26T18:49:52;100666.94;;;9.05;100.00
5883;BME280;2967;51.488;6.618;2024-02-26T18:54:56;100629.03;;;8.78;100.00
5883;BME280;2967;51.488;6.618;2024-02-26T18:59:59;100673.34;;;9.01;100.00
5883;BME280;2967;51.488;6.618;2024-02-26T19:05:02;100687.59;;;9.12;100.00
5883;BME280;2967;51.488;6.618;2024-02-26T19:10:07;100696.44;;;9.11;100.00
5883;BME280;2967;51.488;6.618;2024-02-26T19:15:10;100706.50;;;9.05;100.00
5883;BME280;2967;51.488;6.618;2024-02-26T19:20:13;100596.84;;;8.43;100.00
5883;BME280;2967;51.488;6.618;2024-02-26T19:25:19;100721.72;;;9.15;100.00
5883;BME280;2967;51.488;6.618;2024-02-26T19:30:22;100665.56;;;8.70;100.00
5883;BME280;2967;51.488;6.618;2024-02-26T19:35:25;100737.06;;;9.09;100.00
5883;BME280;2967;51.488;6.618;2024-02-26T19:40:30;100738.00;;;9.08;100.00
5883;BME280;2967;51.488;6.618;2024-02-26T19:45:32;100738.91;;;9.07;100.00
5883;BME280;2967;51.488;6.618;2024-02-26T19:50:37;100763.53;;;9.07;100.00
5883;BME280;2967;51.488;6.618;2024-02-26T19:55:41;100765.59;;;9.02;100.00
5883;BME280;2967;51.488;6.618;2024-02-26T20:00:45;100779.97;;;8.97;100.00
5883;BME280;2967;51.488;6.618;2024-02-26T20:05:48;100780.56;;;9.02;100.00
5883;BME280;2967;51.488;6.618;2024-02-26T20:10:52;100755.69;;;8.76;100.00
5883;BME280;2967;51.488;6.618;2024-02-26T20:15:56;100796.13;;;9.06;100.00
5883;BME280;2967;51.488;6.618;2024-02-26T20:20:59;100742.22;;;8.67;100.00
5883;BME280;2967;51.488;6.618;2024-02-26T20:26:04;100778.34;;;8.65;100.00
5883;BME280;2967;51.488;6.618;2024-02-26T20:31:07;100807.13;;;8.99;100.00
5883;BME280;2967;51.488;6.618;2024-02-26T20:36:10;100803.94;;;8.78;100.00
5883;BME280;2967;51.488;6.618;2024-02-26T20:41:16;100824.91;;;8.95;100.00
5883;BME280;2967;51.488;6.618;2024-02-26T20:46:20;100797.81;;;8.78;100.00
5883;BME280;2967;51.488;6.618;2024-02-26T20:51:24;100791.44;;;8.66;100.00
5883;BME280;2967;51.488;6.618;2024-02-26T20:56:28;100855.13;;;8.90;100.00
5883;BME280;2967;51.488;6.618;2024-02-26T21:01:32;100863.38;;;8.84;100.00
5883;BME280;2967;51.488;6.618;2024-02-26T21:06:35;100878.72;;;8.77;100.00
5883;BME280;2967;51.488;6.618;2024-02-26T21:11:40;100838.72;;;8.54;100.00
5883;BME280;2967;51.488;6.618;2024-02-26T21:16:43;100903.44;;;8.90;100.00
5883;BME280;2967;51.488;6.618;2024-02-26T21:21:46;100809.91;;;8.20;100.00
5883;BME280;2967;51.488;6.618;2024-02-26T21:26:51;100908.91;;;8.87;100.00
5883;BME280;2967;51.488;6.618;2024-02-26T21:31:55;100905.75;;;9.12;100.00
5883;BME280;2967;51.488;6.618;2024-02-26T21:36:58;100779.50;;;7.97;100.00
5883;BME280;2967;51.488;6.618;2024-02-26T21:42:02;100938.00;;;8.86;100.00
5883;BME280;2967;51.488;6.618;2024-02-26T21:47:05;100921.91;;;8.75;100.00
5883;BME280;2967;51.488;6.618;2024-02-26T21:52:08;100887.47;;;8.47;100.00
5883;BME280;2967;51.488;6.618;2024-02-26T21:57:13;100968.22;;;8.96;100.00
5883;BME280;2967;51.488;6.618;2024-02-26T22:02:16;100956.03;;;8.62;100.00
5883;BME280;2967;51.488;6.618;2024-02-26T22:07:19;100970.94;;;8.79;100.00
5883;BME280;2967;51.488;6.618;2024-02-26T22:12:26;100984.09;;;8.63;100.00
5883;BME280;2967;51.488;6.618;2024-02-26T22:17:29;100979.88;;;8.92;100.00
5883;BME280;2967;51.488;6.618;2024-02-26T22:22:32;100951.38;;;8.83;100.00
5883;BME280;2967;51.488;6.618;2024-02-26T22:27:36;100955.38;;;8.90;100.00
5883;BME280;2967;51.488;6.618;2024-02-26T22:32:39;100998.94;;;8.97;100.00
5883;BME280;2967;51.488;6.618;2024-02-26T22:37:42;100956.13;;;8.61;100.00
5883;BME280;2967;51.488;6.618;2024-02-26T22:42:47;101003.88;;;8.87;100.00
5883;BME280;2967;51.488;6.618;2024-02-26T22:47:49;100959.66;;;8.44;100.00
5883;BME280;2967;51.488;6.618;2024-02-26T22:52:52;101005.06;;;8.82;100.00
5883;BME280;2967;51.488;6.618;2024-02-26T22:57:56;101006.16;;;8.78;100.00
5883;BME280;2967;51.488;6.618;2024-02-26T23:03:00;100980.34;;;8.67;100.00
5883;BME280;2967;51.488;6.618;2024-02-26T23:08:04;101025.72;;;8.89;100.00
5883;BME280;2967;51.488;6.618;2024-02-26T23:13:10;101040.63;;;8.90;100.00
5883;BME280;2967;51.488;6.618;2024-02-26T23:18:13;101042.84;;;8.82;100.00
5883;BME280;2967;51.488;6.618;2024-02-26T23:23:16;101051.41;;;8.86;100.00
5883;BME280;2967;51.488;6.618;2024-02-26T23:28:21;100939.09;;;8.18;100.00
5883;BME280;2967;51.488;6.618;2024-02-26T23:33:33;100981.00;;;8.40;100.00
5883;BME280;2967;51.488;6.618;2024-02-26T23:38:36;101026.44;;;8.60;100.00
5883;BME280;2967;51.488;6.618;2024-02-26T23:43:40;101065.13;;;8.77;100.00
5883;BME280;2967;51.488;6.618;2024-02-26T23:48:42;101039.25;;;8.68;100.00
5883;BME280;2967;51.488;6.618;2024-02-26T23:53:46;101035.50;;;8.72;100.00
5883;BME280;2967;51.488;6.618;2024-02-26T23:58:50;101074.44;;;8.99;100.00
